createdAt,value
2022-10-12T00:01:20.778Z,94.30
2022-10-12T00:03:48.252Z,94.63
2022-10-12T00:06:21.494Z,94.26
2022-10-12T00:08:50.494Z,94.46
2022-10-12T00:11:25.744Z,94.40
2022-10-12T00:13:53.145Z,94.44
2022-10-12T00:16:22.233Z,94.67
2022-10-12T00:18:56.626Z,95.03
2022-10-12T00:21:25.381Z,95.04
2022-10-12T00:23:52.346Z,94.87
2022-10-12T00:26:21.825Z,94.90
2022-10-12T00:28:53.834Z,94.91
2022-10-12T00:31:21.254Z,94.91
2022-10-12T00:33:49.340Z,94.94
2022-10-12T00:36:28.294Z,94.79
2022-10-12T00:38:57.297Z,94.63
2022-10-12T00:41:27.822Z,95.13
2022-10-12T00:43:58.154Z,95.16
2022-10-12T00:46:45.235Z,95.36
2022-10-12T00:49:19.309Z,95.33
2022-10-12T00:51:51.424Z,95.42
2022-10-12T00:54:24.782Z,95.19
2022-10-12T00:56:54.416Z,95.11
2022-10-12T00:59:28.617Z,95.07
2022-10-12T01:01:56.394Z,94.95
2022-10-12T01:04:24.247Z,95.17
2022-10-12T01:06:52.221Z,95.32
2022-10-12T01:09:20.865Z,95.36
2022-10-12T01:11:48.219Z,95.55
2022-10-12T01:14:15.790Z,95.71
2022-10-12T01:17:00.678Z,96.05
2022-10-12T01:19:46.067Z,96.56
2022-10-12T01:22:19.053Z,96.82
2022-10-12T01:25:00.275Z,96.84
2022-10-12T01:28:09.535Z,97.13
2022-10-12T01:30:42.420Z,97.26
2022-10-12T01:33:27.698Z,97.53
2022-10-12T01:35:58.487Z,97.39
2022-10-12T01:38:43.547Z,97.10
2022-10-12T01:41:19.272Z,97.20
2022-10-12T01:43:46.804Z,97.17
2022-10-12T01:46:16.513Z,97.64
2022-10-12T01:48:54.303Z,97.89
2022-10-12T01:51:41.622Z,98.31
2022-10-12T01:54:39.931Z,98.52
2022-10-12T01:57:28.834Z,98.99
2022-10-12T02:00:09.482Z,98.90
2022-10-12T02:02:49.717Z,99.00
2022-10-12T02:05:45.228Z,98.57
2022-10-12T02:08:26.509Z,98.19
2022-10-12T02:11:13.530Z,99.06
2022-10-12T02:13:45.905Z,99.43
2022-10-12T02:16:17.350Z,99.76
2022-10-12T02:18:45.820Z,100.00
2022-10-12T02:21:16.193Z,100.00
2022-10-12T02:23:45.737Z,100.00
2022-10-12T02:26:14.994Z,100.00
2022-10-12T02:28:44.639Z,100.00
2022-10-12T02:31:35.072Z,100.00
2022-10-12T02:34:14.647Z,100.00
2022-10-12T02:37:21.353Z,100.00
2022-10-12T02:39:54.715Z,100.00
2022-10-12T02:42:46.658Z,100.00
2022-10-12T02:45:22.845Z,100.00
2022-10-12T02:47:53.167Z,100.00
2022-10-12T02:50:22.695Z,100.00
2022-10-12T02:52:50.421Z,100.00
2022-10-12T02:55:17.733Z,100.00
2022-10-12T02:57:44.479Z,100.00
2022-10-12T03:00:12.103Z,100.00
2022-10-12T03:02:39.061Z,100.00
2022-10-12T03:05:06.332Z,100.00
2022-10-12T03:07:33.155Z,100.00
2022-10-12T03:10:00.009Z,100.00
2022-10-12T03:12:26.933Z,100.00
2022-10-12T03:14:53.842Z,100.00
2022-10-12T03:17:20.779Z,100.00
2022-10-12T03:19:47.655Z,100.00
2022-10-12T03:22:14.493Z,100.00
2022-10-12T03:24:41.564Z,100.00
2022-10-12T03:27:08.414Z,100.00
2022-10-12T03:29:35.286Z,100.00
2022-10-12T03:32:02.074Z,100.00
2022-10-12T03:34:29.001Z,100.00
2022-10-12T03:36:55.802Z,100.00
2022-10-12T03:39:22.951Z,100.00
2022-10-12T03:41:49.713Z,100.00
2022-10-12T03:44:16.635Z,100.00
2022-10-12T03:46:43.453Z,100.00
2022-10-12T03:49:10.373Z,100.00
2022-10-12T03:51:37.301Z,100.00
2022-10-12T03:54:04.349Z,100.00
2022-10-12T03:56:31.217Z,100.00
2022-10-12T03:58:58.152Z,100.00
2022-10-12T04:01:25.950Z,100.00
2022-10-12T04:03:52.882Z,100.00
2022-10-12T04:06:19.717Z,100.00
2022-10-12T04:08:50.605Z,100.00
2022-10-12T04:11:20.349Z,100.00
2022-10-12T04:13:47.432Z,100.00
2022-10-12T04:16:14.428Z,100.00
2022-10-12T04:18:41.316Z,100.00
2022-10-12T04:21:12.328Z,100.00
2022-10-12T04:23:39.417Z,100.00
2022-10-12T04:26:06.723Z,100.00
2022-10-12T04:28:33.943Z,100.00
2022-10-12T04:31:00.912Z,100.00
2022-10-12T04:33:27.849Z,100.00
2022-10-12T04:35:54.749Z,100.00
2022-10-12T04:38:21.735Z,100.00
2022-10-12T04:40:49.398Z,100.00
2022-10-12T04:43:17.721Z,100.00
2022-10-12T04:45:45.035Z,100.00
2022-10-12T04:48:11.846Z,100.00
2022-10-12T04:50:38.842Z,100.00
2022-10-12T04:53:06.073Z,100.00
2022-10-12T04:55:32.971Z,100.00
2022-10-12T04:58:00.889Z,100.00
2022-10-12T05:00:27.826Z,100.00
2022-10-12T05:02:54.726Z,100.00
2022-10-12T05:05:21.814Z,100.00
2022-10-12T05:07:48.756Z,100.00
2022-10-12T05:10:15.825Z,100.00
2022-10-12T05:12:43.110Z,100.00
2022-10-12T05:15:11.039Z,100.00
2022-10-12T05:17:38.420Z,100.00
2022-10-12T05:20:06.200Z,100.00
2022-10-12T05:22:33.179Z,100.00
2022-10-12T05:25:00.227Z,100.00
2022-10-12T05:27:27.249Z,100.00
2022-10-12T05:29:54.228Z,100.00
2022-10-12T05:32:21.251Z,100.00
2022-10-12T05:34:48.634Z,100.00
2022-10-12T05:37:15.623Z,100.00
2022-10-12T05:39:42.469Z,100.00
2022-10-12T05:42:09.435Z,100.00
2022-10-12T05:44:36.309Z,100.00
2022-10-12T05:47:03.425Z,100.00
2022-10-12T05:49:31.051Z,100.00
2022-10-12T05:51:57.923Z,100.00
2022-10-12T05:54:24.857Z,100.00
2022-10-12T05:56:51.893Z,100.00
2022-10-12T05:59:18.911Z,100.00
2022-10-12T06:01:45.820Z,100.00
2022-10-12T06:04:13.066Z,100.00
2022-10-12T06:06:39.906Z,100.00
2022-10-12T06:09:07.003Z,100.00
2022-10-12T06:11:36.400Z,99.70
2022-10-12T06:14:04.044Z,99.51
2022-10-12T06:16:30.904Z,99.64
2022-10-12T06:18:57.861Z,98.95
2022-10-12T06:21:39.990Z,99.23
2022-10-12T06:24:07.231Z,99.26
2022-10-12T06:26:34.139Z,98.91
2022-10-12T06:29:02.417Z,99.02
2022-10-12T06:31:29.661Z,99.15
2022-10-12T06:33:56.581Z,99.52
2022-10-12T06:36:23.986Z,99.20
2022-10-12T06:38:51.108Z,98.20
2022-10-12T06:41:18.123Z,97.77
2022-10-12T06:43:45.195Z,97.21
2022-10-12T06:46:12.178Z,95.87
2022-10-12T06:48:39.291Z,95.00
2022-10-12T06:51:06.440Z,95.26
2022-10-12T06:53:35.018Z,95.82
2022-10-12T06:56:11.569Z,95.66
2022-10-12T06:58:39.620Z,95.39
2022-10-12T07:01:10.406Z,95.02
2022-10-12T07:03:37.778Z,94.56
2022-10-12T07:06:15.065Z,92.90
2022-10-12T07:08:42.600Z,92.88
2022-10-12T07:11:12.774Z,92.22
2022-10-12T07:13:39.885Z,91.90
2022-10-12T07:16:07.949Z,90.57
2022-10-12T07:18:34.980Z,90.31
2022-10-12T07:21:03.022Z,90.32
2022-10-12T07:23:31.980Z,89.65
2022-10-12T07:25:58.918Z,89.12
2022-10-12T07:28:27.047Z,88.48
2022-10-12T07:30:54.184Z,87.71
2022-10-12T07:33:21.031Z,87.34
2022-10-12T07:36:22.123Z,87.38
2022-10-12T07:38:47.124Z,87.41
2022-10-12T07:41:15.110Z,87.83
2022-10-12T07:43:43.151Z,87.17
2022-10-12T07:46:10.650Z,87.12
2022-10-12T07:48:38.017Z,87.92
2022-10-12T07:51:10.030Z,87.56
2022-10-12T07:53:38.658Z,87.09
2022-10-12T07:56:15.051Z,86.16
2022-10-12T07:58:56.763Z,85.38
2022-10-12T08:01:26.613Z,84.78
2022-10-12T08:03:58.749Z,84.79
2022-10-12T08:06:31.202Z,84.10
2022-10-12T08:08:59.781Z,84.10
2022-10-12T08:11:27.670Z,84.33
2022-10-12T08:13:56.123Z,84.03
2022-10-12T08:16:23.986Z,83.93
2022-10-12T08:18:51.163Z,82.78
2022-10-12T08:21:18.474Z,83.27
2022-10-12T08:23:46.160Z,83.63
2022-10-12T08:26:14.687Z,83.69
2022-10-12T08:28:42.372Z,83.20
2022-10-12T08:31:12.741Z,82.66
2022-10-12T08:33:39.884Z,81.44
2022-10-12T08:36:08.249Z,81.56
2022-10-12T08:38:39.008Z,81.27
2022-10-12T08:41:36.847Z,80.39
2022-10-12T08:44:28.282Z,80.05
2022-10-12T08:46:58.229Z,79.81
2022-10-12T08:49:28.398Z,79.76
2022-10-12T08:51:57.822Z,80.07
2022-10-12T08:54:29.572Z,79.75
2022-10-12T08:56:57.993Z,80.09
2022-10-12T08:59:26.564Z,80.24
2022-10-12T09:02:02.290Z,79.72
2022-10-12T09:04:35.034Z,78.47
2022-10-12T09:07:17.067Z,78.57
2022-10-12T09:09:56.159Z,79.36
2022-10-12T09:12:50.785Z,78.98
2022-10-12T09:15:23.166Z,77.73
2022-10-12T09:17:55.229Z,78.03
2022-10-12T09:20:30.882Z,78.31
2022-10-12T09:23:21.594Z,78.75
2022-10-12T09:25:50.258Z,78.03
2022-10-12T09:28:33.660Z,77.16
2022-10-12T09:31:21.027Z,74.57
2022-10-12T09:33:54.167Z,72.51
2022-10-12T09:36:23.547Z,72.82
2022-10-12T09:38:51.186Z,73.32
2022-10-12T09:41:24.901Z,74.19
2022-10-12T09:43:56.826Z,68.79
2022-10-12T09:46:40.133Z,69.54
2022-10-12T09:49:07.181Z,68.49
2022-10-12T09:51:34.355Z,67.75
2022-10-12T09:54:03.805Z,66.70
2022-10-12T09:56:57.228Z,65.91
2022-10-12T09:59:29.486Z,64.07
2022-10-12T10:02:05.042Z,63.90
2022-10-12T10:04:32.291Z,63.32
2022-10-12T10:07:18.296Z,63.21
2022-10-12T10:09:46.087Z,61.58
2022-10-12T10:12:14.988Z,61.64
2022-10-12T10:14:45.701Z,57.66
2022-10-12T10:17:36.500Z,56.25
2022-10-12T10:20:06.231Z,51.88
2022-10-12T10:22:33.652Z,50.16
2022-10-12T10:25:01.275Z,49.65
2022-10-12T10:27:37.941Z,49.68
2022-10-12T10:30:29.941Z,46.50
2022-10-12T10:33:16.025Z,48.26
2022-10-12T10:35:56.578Z,51.09
2022-10-12T10:38:24.228Z,53.70
2022-10-12T10:40:52.693Z,54.37
2022-10-12T10:43:31.853Z,55.27
2022-10-12T10:46:02.693Z,56.74
2022-10-12T10:48:53.373Z,56.64
2022-10-12T10:51:20.508Z,55.93
2022-10-12T10:53:49.634Z,55.75
2022-10-12T10:56:26.727Z,55.47
2022-10-12T10:59:09.045Z,55.78
2022-10-12T11:01:46.314Z,55.89
2022-10-12T11:04:32.845Z,55.88
2022-10-12T11:07:17.080Z,56.13
2022-10-12T11:09:48.638Z,57.15
2022-10-12T11:12:30.326Z,57.11
2022-10-12T11:15:20.088Z,57.59
2022-10-12T11:17:50.908Z,57.88
2022-10-12T11:20:19.909Z,57.74
2022-10-12T11:23:23.396Z,58.32
2022-10-12T11:25:56.045Z,58.13
2022-10-12T11:28:28.517Z,57.82
2022-10-12T11:30:55.822Z,58.08
2022-10-12T11:33:29.291Z,58.77
2022-10-12T11:35:58.835Z,56.98
2022-10-12T11:38:51.356Z,57.40
2022-10-12T11:41:48.458Z,56.55
2022-10-12T11:44:25.352Z,57.42
2022-10-12T11:47:12.149Z,56.86
2022-10-12T11:49:52.073Z,57.13
2022-10-12T11:52:22.926Z,56.81
2022-10-12T11:55:08.720Z,56.29
2022-10-12T11:57:38.183Z,55.52
2022-10-12T12:00:18.392Z,55.31
2022-10-12T12:03:00.979Z,54.73
2022-10-12T12:05:32.630Z,54.11
2022-10-12T12:07:59.573Z,54.73
2022-10-12T12:10:35.218Z,55.10
2022-10-12T12:13:14.819Z,54.12
2022-10-12T12:15:52.352Z,53.33
2022-10-12T12:18:22.787Z,53.91
2022-10-12T12:20:49.539Z,53.53
2022-10-12T12:23:27.839Z,53.46
2022-10-12T12:26:14.639Z,53.56
2022-10-12T12:28:45.263Z,52.60
2022-10-12T12:31:26.831Z,52.77
2022-10-12T12:34:12.412Z,51.71
2022-10-12T12:36:44.914Z,52.34
2022-10-12T12:39:34.993Z,52.24
2022-10-12T12:42:04.881Z,52.72
2022-10-12T12:44:36.846Z,53.33
2022-10-12T12:47:08.593Z,53.63
2022-10-12T12:49:57.452Z,53.01
2022-10-12T12:52:24.346Z,53.74
2022-10-12T12:55:09.290Z,54.20
2022-10-12T12:57:36.266Z,54.38
2022-10-12T13:00:13.257Z,54.42
2022-10-12T13:03:01.427Z,54.12
2022-10-12T13:05:28.325Z,54.26
2022-10-12T13:08:23.401Z,55.14
2022-10-12T13:11:02.251Z,55.01
2022-10-12T13:13:47.549Z,55.12
2022-10-12T13:17:30.151Z,55.24
2022-10-12T13:19:23.602Z,55.31
2022-10-12T13:21:54.663Z,55.91
2022-10-12T13:24:30.437Z,55.77
2022-10-12T13:27:14.309Z,55.63
2022-10-12T13:29:48.989Z,55.33
2022-10-12T13:32:34.604Z,55.43
2022-10-12T13:35:10.491Z,55.55
2022-10-12T13:37:37.754Z,56.07
2022-10-12T13:40:05.212Z,55.57
2022-10-12T13:42:35.942Z,55.35
2022-10-12T13:45:07.996Z,55.25
2022-10-12T13:47:43.089Z,55.24
2022-10-12T13:50:20.722Z,55.40
2022-10-12T13:52:54.466Z,56.19
2022-10-12T13:55:26.484Z,55.54
2022-10-12T13:57:53.966Z,55.71
2022-10-12T14:00:25.665Z,55.84
2022-10-12T14:02:58.830Z,55.92
2022-10-12T14:05:28.164Z,56.16
2022-10-12T14:08:00.465Z,56.57
2022-10-12T14:10:36.330Z,56.32
2022-10-12T14:13:05.203Z,56.40
2022-10-12T14:15:39.052Z,56.56
2022-10-12T14:18:37.833Z,57.08
2022-10-12T14:21:18.442Z,57.59
2022-10-12T14:23:51.950Z,57.54
2022-10-12T14:26:34.327Z,58.09
2022-10-12T14:29:34.811Z,57.83
2022-10-12T14:32:26.486Z,57.55
2022-10-12T14:35:20.872Z,59.05
2022-10-12T14:37:48.983Z,59.68
2022-10-12T14:40:30.438Z,59.72
2022-10-12T14:43:19.841Z,59.10
2022-10-12T14:45:46.879Z,59.76
2022-10-12T14:48:19.975Z,59.88
2022-10-12T14:50:47.013Z,60.96
2022-10-12T14:53:14.905Z,60.76
2022-10-12T14:55:43.154Z,60.38
2022-10-12T14:58:17.456Z,61.26
2022-10-12T15:00:45.130Z,61.63
2022-10-12T15:03:12.300Z,61.95
2022-10-12T15:05:41.882Z,61.94
2022-10-12T15:08:09.656Z,62.56
2022-10-12T15:10:37.482Z,62.83
2022-10-12T15:13:04.621Z,62.92
2022-10-12T15:15:39.508Z,63.56
2022-10-12T15:18:06.801Z,63.69
2022-10-12T15:20:34.677Z,63.37
2022-10-12T15:23:03.103Z,63.30
2022-10-12T15:25:45.236Z,62.93
2022-10-12T15:28:12.388Z,63.10
2022-10-12T15:30:47.475Z,63.58
2022-10-12T15:33:19.423Z,63.99
2022-10-12T15:35:46.187Z,64.29
2022-10-12T15:38:14.365Z,64.44
2022-10-12T15:40:43.859Z,65.82
2022-10-12T15:43:11.512Z,67.21
2022-10-12T15:45:39.763Z,68.64
2022-10-12T15:48:08.735Z,69.35
2022-10-12T15:50:44.712Z,70.15
2022-10-12T15:53:16.839Z,70.30
2022-10-12T15:55:43.715Z,71.39
2022-10-12T15:58:10.546Z,71.61
2022-10-12T16:00:37.506Z,71.44
2022-10-12T16:03:04.681Z,72.59
2022-10-12T16:05:35.589Z,73.51
2022-10-12T16:08:05.340Z,74.03
2022-10-12T16:10:37.134Z,74.97
2022-10-12T16:13:06.708Z,75.18
2022-10-12T16:15:35.723Z,75.17
2022-10-12T16:18:04.848Z,74.42
2022-10-12T16:20:34.512Z,74.29
2022-10-12T16:23:01.517Z,73.84
2022-10-12T16:25:34.663Z,73.86
2022-10-12T16:28:04.991Z,75.04
2022-10-12T16:30:32.458Z,75.61
2022-10-12T16:33:00.369Z,75.00
2022-10-12T16:35:27.515Z,75.25
2022-10-12T16:37:54.366Z,75.70
2022-10-12T16:40:21.398Z,76.67
2022-10-12T16:42:54.772Z,77.07
2022-10-12T16:45:23.771Z,77.17
2022-10-12T16:47:50.700Z,77.05
2022-10-12T16:50:19.141Z,77.50
2022-10-12T16:52:46.512Z,78.06
2022-10-12T16:55:14.353Z,78.12
2022-10-12T16:57:41.432Z,78.08
2022-10-12T17:00:11.769Z,77.93
2022-10-12T17:02:57.505Z,77.72
2022-10-12T17:05:25.040Z,77.78
2022-10-12T17:07:51.903Z,77.97
2022-10-12T17:10:18.804Z,78.92
2022-10-12T17:12:45.869Z,79.85
2022-10-12T17:15:12.658Z,79.61
2022-10-12T17:17:39.570Z,80.27
2022-10-12T17:20:06.941Z,80.62
2022-10-12T17:22:34.845Z,80.76
2022-10-12T17:25:01.919Z,80.57
2022-10-12T17:27:32.140Z,80.69
2022-10-12T17:29:59.654Z,81.18
2022-10-12T17:32:29.303Z,81.71
2022-10-12T17:34:56.438Z,82.09
2022-10-12T17:37:23.352Z,82.08
2022-10-12T17:39:50.496Z,81.52
2022-10-12T17:42:18.235Z,81.07
2022-10-12T17:44:45.557Z,81.07
2022-10-12T17:47:12.468Z,81.03
2022-10-12T17:49:42.951Z,81.21
2022-10-12T17:52:09.867Z,81.51
2022-10-12T17:54:36.830Z,81.72
2022-10-12T17:57:04.641Z,81.88
2022-10-12T17:59:31.852Z,82.31
2022-10-12T18:01:59.195Z,82.89
2022-10-12T18:04:26.112Z,83.21
2022-10-12T18:06:53.341Z,83.60
2022-10-12T18:09:20.207Z,83.66
2022-10-12T18:11:47.180Z,83.58
2022-10-12T18:14:14.294Z,83.22
2022-10-12T18:16:41.546Z,83.07
2022-10-12T18:19:11.395Z,83.95
2022-10-12T18:21:38.825Z,83.95
2022-10-12T18:24:16.025Z,84.56
2022-10-12T18:26:47.410Z,85.05
2022-10-12T18:29:18.048Z,85.17
2022-10-12T18:31:45.103Z,85.33
2022-10-12T18:34:11.989Z,85.36
2022-10-12T18:36:40.123Z,85.45
2022-10-12T18:39:07.192Z,85.30
2022-10-12T18:41:34.174Z,84.92
2022-10-12T18:44:02.584Z,84.93
2022-10-12T18:46:32.475Z,85.16
2022-10-12T18:49:02.910Z,84.89
2022-10-12T18:51:32.868Z,85.67
2022-10-12T18:54:00.611Z,86.02
2022-10-12T18:56:28.467Z,86.53
2022-10-12T18:58:57.341Z,86.62
2022-10-12T19:01:26.631Z,86.17
2022-10-12T19:03:55.521Z,85.78
2022-10-12T19:06:25.414Z,85.57
2022-10-12T19:08:55.003Z,85.55
2022-10-12T19:11:23.193Z,85.83
2022-10-12T19:14:02.255Z,86.68
2022-10-12T19:16:30.445Z,87.41
2022-10-12T19:18:59.963Z,87.35
2022-10-12T19:21:27.600Z,86.94
2022-10-12T19:23:54.871Z,87.26
2022-10-12T19:26:25.174Z,87.35
2022-10-12T19:28:54.676Z,87.26
2022-10-12T19:31:28.350Z,87.32
2022-10-12T19:34:00.754Z,87.55
2022-10-12T19:36:28.780Z,87.68
2022-10-12T19:39:00.733Z,87.73
2022-10-12T19:41:28.846Z,87.86
2022-10-12T19:43:57.583Z,88.63
2022-10-12T19:46:25.020Z,89.21
2022-10-12T19:48:53.937Z,89.48
2022-10-12T19:51:22.266Z,89.55
2022-10-12T19:53:54.124Z,89.44
2022-10-12T19:56:21.429Z,89.28
2022-10-12T19:58:50.344Z,89.36
2022-10-12T20:01:20.722Z,89.35
2022-10-12T20:03:50.066Z,89.72
2022-10-12T20:06:18.142Z,89.55
2022-10-12T20:08:46.043Z,90.01
2022-10-12T20:11:18.458Z,90.28
2022-10-12T20:13:48.369Z,90.74
2022-10-12T20:16:17.677Z,90.95
2022-10-12T20:18:45.059Z,91.15
2022-10-12T20:21:14.741Z,91.13
2022-10-12T20:23:43.218Z,91.38
2022-10-12T20:26:14.856Z,91.43
2022-10-12T20:28:41.831Z,91.79
2022-10-12T20:31:08.807Z,92.38
2022-10-12T20:33:37.328Z,92.71
2022-10-12T20:36:09.153Z,92.92
2022-10-12T20:38:37.668Z,92.85
2022-10-12T20:41:12.613Z,93.73
2022-10-12T20:43:40.621Z,94.52
2022-10-12T20:46:10.569Z,94.36
2022-10-12T20:48:39.994Z,94.07
2022-10-12T20:51:08.949Z,93.59
2022-10-12T20:53:36.503Z,93.43
2022-10-12T20:56:06.319Z,93.98
2022-10-12T20:58:33.591Z,94.40
2022-10-12T21:01:06.256Z,94.43
2022-10-12T21:03:33.817Z,94.45
2022-10-12T21:06:05.839Z,94.26
2022-10-12T21:08:33.255Z,93.99
2022-10-12T21:11:00.598Z,94.08
2022-10-12T21:13:30.972Z,94.02
2022-10-12T21:15:58.585Z,93.77
2022-10-12T21:18:26.705Z,93.45
2022-10-12T21:21:11.737Z,93.15
2022-10-12T21:23:42.878Z,93.18
2022-10-12T21:26:14.908Z,93.21
2022-10-12T21:28:41.974Z,93.56
2022-10-12T21:31:09.140Z,93.79
2022-10-12T21:33:37.965Z,93.75
2022-10-12T21:36:13.938Z,93.73
2022-10-12T21:38:42.236Z,93.83
2022-10-12T21:41:11.082Z,93.73
2022-10-12T21:43:39.846Z,93.54
2022-10-12T21:46:16.602Z,93.81
2022-10-12T21:48:43.483Z,93.69
2022-10-12T21:51:10.737Z,93.56
2022-10-12T21:53:38.478Z,93.19
2022-10-12T21:56:10.286Z,93.63
2022-10-12T21:58:37.367Z,93.42
2022-10-12T22:01:21.941Z,93.85
2022-10-12T22:03:56.377Z,93.70
2022-10-12T22:06:25.137Z,93.85
2022-10-12T22:08:55.200Z,94.15
2022-10-12T22:11:22.272Z,94.18
2022-10-12T22:13:49.301Z,94.56
2022-10-12T22:16:18.468Z,94.63
2022-10-12T22:18:46.029Z,94.82
2022-10-12T22:21:15.520Z,94.74
2022-10-12T22:23:43.614Z,95.17
2022-10-12T22:26:19.154Z,95.23
2022-10-12T22:28:53.346Z,94.94
2022-10-12T22:31:22.358Z,94.79
2022-10-12T22:33:49.306Z,94.86
2022-10-12T22:36:16.493Z,94.40
2022-10-12T22:38:43.887Z,94.34
2022-10-12T22:41:16.707Z,93.99
2022-10-12T22:43:50.488Z,94.13
2022-10-12T22:46:18.691Z,94.35
2022-10-12T22:48:46.189Z,94.72
2022-10-12T22:51:18.493Z,95.00
2022-10-12T22:53:45.663Z,95.36
2022-10-12T22:56:18.138Z,95.50
2022-10-12T22:58:48.503Z,95.67
2022-10-12T23:01:17.508Z,95.74
2022-10-12T23:03:45.506Z,95.79
2022-10-12T23:06:15.299Z,95.56
2022-10-12T23:08:42.765Z,95.87
2022-10-12T23:11:16.299Z,95.90
2022-10-12T23:13:43.609Z,96.08
2022-10-12T23:16:15.902Z,96.55
2022-10-12T23:18:43.243Z,96.71
2022-10-12T23:21:13.498Z,96.36
2022-10-12T23:23:41.412Z,96.05
2022-10-12T23:26:16.936Z,95.48
2022-10-12T23:28:44.791Z,95.04
2022-10-12T23:31:19.360Z,94.96
2022-10-12T23:33:46.584Z,94.70
2022-10-12T23:36:16.418Z,95.30
2022-10-12T23:38:44.798Z,95.56
2022-10-12T23:41:13.103Z,95.29
2022-10-12T23:43:40.515Z,95.53
2022-10-12T23:46:07.918Z,95.78
2022-10-12T23:48:35.074Z,95.77
2022-10-12T23:51:02.012Z,95.77
2022-10-12T23:53:29.060Z,96.28
2022-10-12T23:55:56.393Z,96.51
2022-10-12T23:58:23.329Z,96.80
